Vano — SBNM — position and weather

sailwx.info

Track history (hours):
 
Tides and Currents Weather Stations Pressure Air Temp Water Temp Dewpoint Dewpoint Depression Visibility Wind Speed Wind Dir Waves Ship Positions

Vano

Last reported at 2018-Apr-20 21:53 UTC. Time now 2018-Apr-20 22:17 UTC.
Position N 59°20' E 018°04'.

Length 38 m; draft 2.5 m.

Type: Passenger vessel. MMSI: 265520400.

Date/timePositionNaut miles runAvg speedWind from/ knotsBaromVisibWave heightAir tempDewpointWater temp
2018-Apr-20 21:53N 59°20' E 018°04'0 0.0
2018-Apr-20 21:29N 59°20' E 018°04'0 0.0
2018-Apr-20 20:56N 59°20' E 018°04'0 0.0
2018-Apr-20 20:28N 59°20' E 018°04'0 0.0
2018-Apr-20 19:54N 59°20' E 018°04'0 0.0
2018-Apr-20 19:29N 59°20' E 018°04'3 6.7
2018-Apr-20 19:00N 59°20' E 018°11'714.2
2018-Apr-20 18:30N 59°24' E 018°21'510.1
2018-Apr-20 17:59N 59°25' E 018°32'3 6.3
2018-Apr-20 17:30N 59°27' E 018°36'612.1
2018-Apr-20 17:00N 59°30' E 018°47'1 1.9
2018-Apr-20 16:30N 59°29' E 018°46'5 8.8
2018-Apr-20 15:55N 59°27' E 018°36'3 4.9
2018-Apr-20 15:24N 59°25' E 018°33'4 8.4
2018-Apr-20 14:59N 59°27' E 018°27'4 7.7
2018-Apr-20 14:30N 59°24' E 018°21'5 9.3
2018-Apr-20 14:00N 59°21' E 018°15'510.6
2018-Apr-20 13:30N 59°20' E 018°04'0 0.0
2018-Apr-20 12:59N 59°20' E 018°04'0 0.0
2018-Apr-20 12:29N 59°20' E 018°04'0 0.0
2018-Apr-20 12:00N 59°20' E 018°04'0 0.0
2018-Apr-20 11:28N 59°20' E 018°04'0 0.0
2018-Apr-20 10:55N 59°20' E 018°04'0 0.0
2018-Apr-20 10:24N 59°20' E 018°04'0 0.0
2018-Apr-20 10:00N 59°20' E 018°04'0 0.0
2018-Apr-20 09:30N 59°20' E 018°04'0 0.0
2018-Apr-20 08:59N 59°20' E 018°04'0 0.0
2018-Apr-20 08:29N 59°20' E 018°04'0 0.0
2018-Apr-20 08:00N 59°20' E 018°04'0 0.0
2018-Apr-20 07:29N 59°20' E 018°04'0 0.0
2018-Apr-20 06:59N 59°20' E 018°04'0 0.0
2018-Apr-20 06:24N 59°20' E 018°04'0 0.1
2018-Apr-20 06:00N 59°20' E 018°04'4 8.4
2018-Apr-20 05:30N 59°20' E 018°13'4 8.1
2018-Apr-20 05:00N 59°23' E 018°19'2 4.0
2018-Apr-20 04:30N 59°24' E 018°23'0 0.1
2018-Apr-20 04:00N 59°24' E 018°23'1 1.5
2018-Apr-20 03:26N 59°24' E 018°21'0 0.0
2018-Apr-20 02:57N 59°24' E 018°21'0 0.0
2018-Apr-20 02:29N 59°24' E 018°21'0 0.0
2018-Apr-20 01:52N 59°24' E 018°21'0 0.0
2018-Apr-20 01:27N 59°24' E 018°21'0 0.0
2018-Apr-20 00:54N 59°24' E 018°21'0 0.0
2018-Apr-20 00:23N 59°24' E 018°21'0 0.0
2018-Apr-19 23:59N 59°24' E 018°21'0 0.0
2018-Apr-19 23:18N 59°24' E 018°21'0 0.0
2018-Apr-19 22:54N 59°24' E 018°21'0 0.0
2018-Apr-19 22:28N 59°24' E 018°21'0 0.0
2018-Apr-19 21:49N 59°24' E 018°21'0 0.0
2018-Apr-19 21:27N 59°24' E 018°21'0 0.0
2018-Apr-19 20:54N 59°24' E 018°21'0 0.0
2018-Apr-19 20:29N 59°24' E 018°21'0 0.0
2018-Apr-19 19:48N 59°24' E 018°21'0 0.0
2018-Apr-19 19:28N 59°24' E 018°21'0 0.0
2018-Apr-19 18:50N 59°24' E 018°21'0 0.0
2018-Apr-19 18:27N 59°24' E 018°21'0 0.0
2018-Apr-19 17:36N 59°24' E 018°21'0 0.4
2018-Apr-19 17:31N 59°24' E 018°21'0 1.0
2018-Apr-19 17:00N 59°24' E 018°22'2 4.3
2018-Apr-19 16:30N 59°23' E 018°19'5 9.5
2018-Apr-19 16:00N 59°20' E 018°11'4 7.0
2018-Apr-19 15:30N 59°20' E 018°05'0 0.1
2018-Apr-19 14:58N 59°20' E 018°05'0 0.0
2018-Apr-19 14:30N 59°20' E 018°05'0 0.0
2018-Apr-19 13:58N 59°20' E 018°05'0 0.0
2018-Apr-19 13:26N 59°20' E 018°05'0 0.0
2018-Apr-19 12:54N 59°20' E 018°05'0 0.0
2018-Apr-19 12:30N 59°20' E 018°05'0 0.0
2018-Apr-19 12:00N 59°20' E 018°05'0 0.0
2018-Apr-19 11:29N 59°20' E 018°05'0 0.0
2018-Apr-19 10:59N 59°20' E 018°05'0 0.0
2018-Apr-19 10:29N 59°20' E 018°05'0 0.0
2018-Apr-19 10:00N 59°20' E 018°05'0 0.0
2018-Apr-19 09:28N 59°20' E 018°05'0 0.0
2018-Apr-19 08:59N 59°20' E 018°05'0 0.0
2018-Apr-19 08:30N 59°20' E 018°05'1 1.6
2018-Apr-19 08:00N 59°19' E 018°06'5 8.9
2018-Apr-19 07:27N 59°21' E 018°14'5 8.6
2018-Apr-19 06:55N 59°24' E 018°21'3 8.3
2018-Apr-19 06:30N 59°26' E 018°28'611.1
2018-Apr-19 06:01N 59°22' E 018°36'610.0
2018-Apr-19 05:26N 59°24' E 018°47'4 5.1
2018-Apr-19 04:36N 59°25' E 018°55'1 8.1
2018-Apr-19 04:30N 59°26' E 018°56'1 1.2
2018-Apr-19 03:58N 59°27' E 018°55'0 0.0
2018-Apr-19 03:28N 59°27' E 018°55'0 0.0
2018-Apr-19 03:00N 59°27' E 018°55'0 0.0
2018-Apr-19 02:30N 59°27' E 018°55'0 0.0
2018-Apr-19 01:58N 59°27' E 018°55'0 0.0
2018-Apr-19 01:28N 59°27' E 018°55'0 0.0
2018-Apr-19 00:58N 59°27' E 018°55'0 0.0
2018-Apr-19 00:30N 59°27' E 018°55'0 0.0
2018-Apr-18 23:59N 59°27' E 018°55'0 0.0
2018-Apr-18 23:29N 59°27' E 018°55'0 0.0
2018-Apr-18 22:51N 59°27' E 018°55'0 0.0
2018-Apr-18 22:30N 59°27' E 018°55'0 0.0
2018-Apr-18 21:51N 59°27' E 018°55'0 0.0
2018-Apr-18 21:16N 59°27' E 018°55'0 0.0
2018-Apr-18 20:57N 59°27' E 018°55'0 0.0
2018-Apr-18 20:30N 59°27' E 018°55'0 0.0
2018-Apr-18 20:00N 59°27' E 018°55'0 0.0
2018-Apr-18 19:30N 59°27' E 018°55'0 0.0
2018-Apr-18 19:00N 59°27' E 018°55'0 0.0
2018-Apr-18 18:30N 59°27' E 018°55'0 0.0
2018-Apr-18 18:00N 59°27' E 018°55'0 0.0
2018-Apr-18 17:27N 59°27' E 018°55'1 1.6
2018-Apr-18 17:00N 59°26' E 018°55'4 6.2
2018-Apr-18 16:21N 59°23' E 018°50'3 6.8
2018-Apr-18 15:59N 59°23' E 018°46'5 6.7
2018-Apr-18 15:15N 59°22' E 018°36'0 0.1
2018-Apr-18 14:45N 59°22' E 018°36'0 0.0
2018-Apr-18 14:26N 59°22' E 018°36'0 0.2
2018-Apr-18 13:56N 59°22' E 018°36'4 7.8
2018-Apr-18 13:29N 59°23' E 018°43'3 3.9
2018-Apr-18 12:48N 59°23' E 018°48'4 5.1
2018-Apr-18 12:07N 59°25' E 018°54'1 6.5
2018-Apr-18 12:01N 59°25' E 018°55'1 2.8
2018-Apr-18 11:30N 59°27' E 018°53'0 0.2
2018-Apr-18 11:00N 59°27' E 018°53'1 2.9
2018-Apr-18 10:30N 59°26' E 018°55'4 6.6
2018-Apr-18 09:56N 59°22' E 018°53'3 5.7
2018-Apr-18 09:23N 59°24' E 018°47'3 5.5
2018-Apr-18 08:51N 59°23' E 018°42'3 5.4
2018-Apr-18 08:21N 59°22' E 018°36'0 0.0
2018-Apr-18 07:52N 59°22' E 018°36'0 0.0
2018-Apr-18 07:27N 59°22' E 018°36'0 0.0
2018-Apr-18 05:54N 59°22' E 018°36'4 9.2
2018-Apr-18 05:27N 59°26' E 018°39'2 3.7
2018-Apr-18 05:00N 59°26' E 018°42'5 9.1
2018-Apr-18 04:30N 59°29' E 018°50'1 2.3
2018-Apr-18 03:58N 59°30' E 018°51'0 0.0
2018-Apr-18 03:28N 59°30' E 018°51'0 0.0
2018-Apr-18 02:56N 59°30' E 018°51'0 0.0
2018-Apr-18 02:29N 59°30' E 018°51'0 0.0
2018-Apr-18 01:57N 59°30' E 018°51'0 0.0
2018-Apr-18 01:27N 59°30' E 018°51'0 0.0
2018-Apr-18 00:52N 59°30' E 018°51'0 0.0
2018-Apr-18 00:20N 59°30' E 018°51'0 0.0
2018-Apr-17 23:56N 59°30' E 018°51'0 0.0
2018-Apr-17 23:28N 59°30' E 018°51'0 0.0
2018-Apr-17 22:49N 59°30' E 018°51'0 0.0
2018-Apr-17 22:17N 59°30' E 018°51'0 0.0
2018-Apr-17 20:56N 59°30' E 018°51'0 0.0
2018-Apr-17 20:29N 59°30' E 018°51'0 0.0
2018-Apr-17 19:59N 59°30' E 018°51'0 0.0
2018-Apr-17 19:29N 59°30' E 018°51'0 0.0
2018-Apr-17 18:41N 59°30' E 018°51'0 0.0
2018-Apr-17 18:15N 59°30' E 018°51'0 0.0
2018-Apr-17 17:57N 59°30' E 018°51'0 0.0
2018-Apr-17 17:30N 59°30' E 018°51'0 0.0
2018-Apr-17 16:55N 59°30' E 018°51'4 7.9
2018-Apr-17 16:26N 59°28' E 018°44'3 5.6
2018-Apr-17 15:57N 59°26' E 018°41'3 6.3
2018-Apr-17 15:29N 59°23' E 018°38'4 7.6
2018-Apr-17 15:00N 59°25' E 018°31'5 9.9
2018-Apr-17 14:29N 59°25' E 018°22'2 5.2
2018-Apr-17 14:00N 59°23' E 018°20'4 8.0
2018-Apr-17 13:30N 59°21' E 018°14'5 9.0
2018-Apr-17 12:58N 59°20' E 018°05'0 0.0
2018-Apr-17 12:28N 59°20' E 018°05'0 0.0
2018-Apr-17 11:59N 59°20' E 018°05'0 0.0
2018-Apr-17 11:28N 59°20' E 018°05'0 0.0
2018-Apr-17 10:57N 59°20' E 018°05'0 0.0
2018-Apr-17 10:29N 59°20' E 018°05'0 0.0
2018-Apr-17 09:59N 59°20' E 018°05'0 0.0
2018-Apr-17 09:30N 59°20' E 018°05'0 0.0
2018-Apr-17 08:55N 59°20' E 018°05'0 0.0
2018-Apr-17 08:29N 59°20' E 018°05'0 0.0
2018-Apr-17 07:58N 59°20' E 018°05'0 0.0
2018-Apr-17 07:29N 59°20' E 018°05'0 0.0
2018-Apr-17 06:53N 59°20' E 018°05'0 0.0
2018-Apr-17 06:24N 59°20' E 018°05'0 0.0
2018-Apr-17 06:00N 59°20' E 018°05'0 0.0
2018-Apr-17 05:25N 59°20' E 018°05'0 0.0
2018-Apr-17 04:59N 59°20' E 018°05'0 0.0
2018-Apr-17 04:30N 59°20' E 018°05'0 0.0
2018-Apr-17 03:57N 59°20' E 018°05'0 0.0
2018-Apr-17 03:26N 59°20' E 018°05'0 0.0
2018-Apr-17 02:53N 59°20' E 018°05'0 0.0
2018-Apr-17 02:28N 59°20' E 018°05'0 0.0
2018-Apr-17 02:00N 59°20' E 018°05'0 0.0
2018-Apr-17 01:29N 59°20' E 018°05'0 0.0
2018-Apr-17 00:59N 59°20' E 018°05'0 0.0
2018-Apr-17 00:27N 59°20' E 018°05'0 0.0
2018-Apr-16 23:58N 59°20' E 018°05'0 0.0
2018-Apr-16 23:29N 59°20' E 018°05'0 0.0
2018-Apr-16 22:55N 59°20' E 018°05'0 0.0
2018-Apr-16 22:30N 59°20' E 018°05'0 0.0
2018-Apr-16 21:59N 59°20' E 018°05'0 0.0
2018-Apr-16 21:27N 59°20' E 018°05'0 0.0
2018-Apr-16 21:00N 59°20' E 018°05'0 0.0
2018-Apr-16 20:27N 59°20' E 018°05'0 0.0
2018-Apr-16 20:00N 59°20' E 018°05'0 0.0
2018-Apr-16 19:29N 59°20' E 018°05'0 0.0
2018-Apr-16 19:00N 59°20' E 018°05'0 0.0
2018-Apr-16 18:29N 59°20' E 018°05'0 0.0
2018-Apr-16 17:59N 59°20' E 018°05'0 0.0
2018-Apr-16 17:30N 59°20' E 018°05'0 0.0
2018-Apr-16 16:58N 59°20' E 018°05'0 0.0
2018-Apr-16 16:29N 59°20' E 018°05'0 0.0
2018-Apr-16 16:00N 59°20' E 018°05'0 0.0
2018-Apr-16 15:25N 59°20' E 018°05'0 0.0
2018-Apr-16 15:00N 59°20' E 018°05'0 0.0
2018-Apr-16 14:30N 59°20' E 018°05'0 0.0
2018-Apr-16 13:58N 59°20' E 018°05'0 0.0
2018-Apr-16 13:29N 59°20' E 018°05'0 0.0
2018-Apr-16 12:56N 59°20' E 018°05'0 0.0
2018-Apr-16 12:30N 59°20' E 018°05'0 0.0
2018-Apr-16 11:59N 59°20' E 018°05'0 0.0
2018-Apr-16 11:29N 59°20' E 018°05'0 0.0
2018-Apr-16 10:53N 59°20' E 018°05'0 0.0
2018-Apr-16 10:30N 59°20' E 018°05'0 0.0
2018-Apr-16 09:58N 59°20' E 018°05'0 0.0
2018-Apr-16 09:29N 59°20' E 018°05'0 0.0
2018-Apr-16 09:00N 59°20' E 018°05'0 0.0
2018-Apr-16 08:27N 59°20' E 018°05'0 0.7
2018-Apr-16 08:00N 59°19' E 018°05'510.7
2018-Apr-16 07:30N 59°21' E 018°14'4 8.9
2018-Apr-16 07:00N 59°24' E 018°21'4 7.1
2018-Apr-16 06:30N 59°26' E 018°28'611.2
2018-Apr-16 06:00N 59°22' E 018°36'4 7.6
2018-Apr-16 05:29N 59°23' E 018°44'3 6.4
2018-Apr-16 04:59N 59°23' E 018°50'3 7.0
2018-Apr-16 04:30N 59°25' E 018°55'1 2.6
2018-Apr-16 04:00N 59°27' E 018°55'0 0.2
2018-Apr-16 03:30N 59°27' E 018°55'0 0.0
2018-Apr-16 02:58N 59°27' E 018°55'0 0.0
2018-Apr-16 02:28N 59°27' E 018°55'0 0.0
2018-Apr-16 01:58N 59°27' E 018°55'0 0.0
2018-Apr-16 01:28N 59°27' E 018°55'0 0.0
2018-Apr-16 00:58N 59°27' E 018°55'0 0.0
2018-Apr-16 00:29N 59°27' E 018°55'0 0.0
2018-Apr-15 23:57N 59°27' E 018°55'0 0.0
2018-Apr-15 23:24N 59°27' E 018°55'0 0.0
2018-Apr-15 22:57N 59°27' E 018°55'0 0.0
2018-Apr-15 22:27N 59°27' E 018°55'0 0.0
2018-Apr-15 22:00N 59°27' E 018°55'0 0.0
2018-Apr-15 21:25N 59°27' E 018°55'0 0.0
2018-Apr-15 20:58N 59°27' E 018°55'0 0.0
2018-Apr-15 20:28N 59°27' E 018°55'0 0.0
2018-Apr-15 19:50N 59°27' E 018°55'0 0.0
2018-Apr-15 19:28N 59°27' E 018°55'5 5.7
2018-Apr-15 18:37N 59°23' E 018°49'0 2.5
2018-Apr-15 18:30N 59°23' E 018°48'4 8.1
2018-Apr-15 17:57N 59°23' E 018°39'611.7
2018-Apr-15 17:25N 59°25' E 018°28'4 9.1
2018-Apr-15 17:00N 59°24' E 018°21'5 9.2
2018-Apr-15 16:30N 59°21' E 018°14'510.5
2018-Apr-15 16:00N 59°20' E 018°04'0 0.0
2018-Apr-15 15:28N 59°20' E 018°04'0 0.0
2018-Apr-15 14:59N 59°20' E 018°04'0 0.0
2018-Apr-15 14:29N 59°20' E 018°04'1 2.6
2018-Apr-15 14:00N 59°19' E 018°07'714.3
2018-Apr-15 13:30N 59°23' E 018°19'5 8.9
2018-Apr-15 13:00N 59°26' E 018°26'13 8.3
2018-Apr-15 11:28N 59°23' E 018°50'3 6.7
2018-Apr-15 10:57N 59°25' E 018°55'1 3.2
2018-Apr-15 10:30N 59°27' E 018°55'5 6.6
2018-Apr-15 09:49N 59°23' E 018°51'2 5.5
2018-Apr-15 09:24N 59°24' E 018°47'2 4.0
2018-Apr-15 08:57N 59°23' E 018°43'4 6.1
2018-Apr-15 08:15N 59°23' E 018°35'312.3
2018-Apr-15 07:59N 59°25' E 018°30'5 9.5
2018-Apr-15 07:30N 59°25' E 018°21'510.9
2018-Apr-15 07:00N 59°21' E 018°14'5 9.2
2018-Apr-15 06:29N 59°20' E 018°05'0 0.0
2018-Apr-15 05:59N 59°20' E 018°05'0 0.0
2018-Apr-15 05:30N 59°20' E 018°05'0 0.0
2018-Apr-15 04:58N 59°20' E 018°05'0 0.0
2018-Apr-15 04:30N 59°20' E 018°05'0 0.0
2018-Apr-15 03:59N 59°20' E 018°05'0 0.0
2018-Apr-15 03:28N 59°20' E 018°05'0 0.0
2018-Apr-15 03:00N 59°20' E 018°05'0 0.0
2018-Apr-15 02:29N 59°20' E 018°05'0 0.0
2018-Apr-15 02:00N 59°20' E 018°05'0 0.0
2018-Apr-15 01:28N 59°20' E 018°05'0 0.0
2018-Apr-15 00:53N 59°20' E 018°05'0 0.0
2018-Apr-15 00:29N 59°20' E 018°05'0 0.0
2018-Apr-14 23:59N 59°20' E 018°05'0 0.0
2018-Apr-14 23:28N 59°20' E 018°05'0 0.0
2018-Apr-14 22:50N 59°20' E 018°05'0 0.0
2018-Apr-14 22:28N 59°20' E 018°05'0 0.0
2018-Apr-14 22:00N 59°20' E 018°05'0 0.0
2018-Apr-14 21:30N 59°20' E 018°05'0 0.0
2018-Apr-14 20:59N 59°20' E 018°05'0 0.0
2018-Apr-14 20:29N 59°20' E 018°05'0 0.0
2018-Apr-14 19:59N 59°20' E 018°05'2 5.2
2018-Apr-14 19:30N 59°19' E 018°09'713.5
2018-Apr-14 19:00N 59°23' E 018°20'5 9.1
2018-Apr-14 18:30N 59°25' E 018°28'610.9
2018-Apr-14 17:59N 59°28' E 018°38'613.3
2018-Apr-14 17:30N 59°30' E 018°50'510.6
2018-Apr-14 17:00N 59°26' E 018°42'2 5.0
2018-Apr-14 16:30N 59°25' E 018°38'2 4.1
2018-Apr-14 16:00N 59°24' E 018°34'5 9.0
2018-Apr-14 15:28N 59°26' E 018°25'3 6.5
2018-Apr-14 15:00N 59°24' E 018°21'4 7.8
2018-Apr-14 14:29N 59°21' E 018°15'511.2
2018-Apr-14 14:00N 59°20' E 018°04'0 0.0
2018-Apr-14 13:28N 59°20' E 018°04'0 0.0
2018-Apr-14 12:56N 59°20' E 018°04'0 0.5
2018-Apr-14 12:30N 59°20' E 018°05'510.6
2018-Apr-14 12:00N 59°21' E 018°15'5 8.9
2018-Apr-14 11:29N 59°24' E 018°21'5 9.4
2018-Apr-14 10:57N 59°25' E 018°31'814.9
2018-Apr-14 10:26N 59°25' E 018°46'511.8
2018-Apr-14 10:00N 59°27' E 018°56'5 7.2
2018-Apr-14 09:23N 59°22' E 018°52'5 6.3
2018-Apr-14 08:36N 59°23' E 018°43'1 2.6
2018-Apr-14 08:12N 59°23' E 018°42'2 8.0
2018-Apr-14 08:00N 59°23' E 018°39'610.0
2018-Apr-14 07:24N 59°25' E 018°28'3 8.5
2018-Apr-14 07:00N 59°24' E 018°21'5 9.3
2018-Apr-14 06:30N 59°21' E 018°15'510.7
2018-Apr-14 06:00N 59°20' E 018°04'0 0.1
2018-Apr-14 05:30N 59°20' E 018°04'0 0.0
2018-Apr-14 04:59N 59°20' E 018°04'0 0.0
2018-Apr-14 04:30N 59°20' E 018°04'0 0.0
2018-Apr-14 03:58N 59°20' E 018°04'0 0.0
2018-Apr-14 03:28N 59°20' E 018°04'0 0.0
2018-Apr-14 02:59N 59°20' E 018°04'0 0.0
2018-Apr-14 02:29N 59°20' E 018°04'0 0.0
2018-Apr-14 01:59N 59°20' E 018°04'0 0.0
2018-Apr-14 01:29N 59°20' E 018°04'0 0.0
2018-Apr-14 00:55N 59°20' E 018°04'0 0.0
2018-Apr-14 00:30N 59°20' E 018°04'0 0.0
2018-Apr-13 23:58N 59°20' E 018°04'0 0.0
2018-Apr-13 23:29N 59°20' E 018°04'0 0.0
2018-Apr-13 22:55N 59°20' E 018°04'0 0.0
2018-Apr-13 22:29N 59°20' E 018°04'0 0.0
2018-Apr-13 21:58N 59°20' E 018°04'0 0.0
2018-Apr-13 21:28N 59°20' E 018°04'0 0.0
2018-Apr-13 20:59N 59°20' E 018°04'0 0.0
2018-Apr-13 20:28N 59°20' E 018°04'0 0.0
2018-Apr-13 19:58N 59°20' E 018°04'0 0.0
2018-Apr-13 19:28N 59°20' E 018°04'0 0.0
2018-Apr-13 18:59N 59°20' E 018°04'0 0.0
2018-Apr-13 18:30N 59°20' E 018°04'0 0.0
2018-Apr-13 18:00N 59°20' E 018°04'0 0.0
2018-Apr-13 17:29N 59°20' E 018°04'0 0.0
2018-Apr-13 16:59N 59°20' E 018°04'3 7.0
2018-Apr-13 16:30N 59°20' E 018°11'714.3
2018-Apr-13 16:00N 59°25' E 018°21'611.0
2018-Apr-13 15:30N 59°25' E 018°32'3 5.9
2018-Apr-13 14:59N 59°27' E 018°27'4 6.9
2018-Apr-13 14:27N 59°24' E 018°21'510.6
2018-Apr-13 14:00N 59°21' E 018°15'5 9.8
2018-Apr-13 13:28N 59°20' E 018°05'0 0.0
2018-Apr-13 12:59N 59°20' E 018°05'0 0.0
2018-Apr-13 12:27N 59°20' E 018°05'0 0.0
2018-Apr-13 12:00N 59°20' E 018°05'0 0.0
2018-Apr-13 11:28N 59°20' E 018°05'0 0.0
2018-Apr-13 10:59N 59°20' E 018°05'0 0.0
2018-Apr-13 10:29N 59°20' E 018°05'0 0.0
2018-Apr-13 09:58N 59°20' E 018°05'0 0.0
2018-Apr-13 09:26N 59°20' E 018°05'0 0.0
2018-Apr-13 08:59N 59°20' E 018°05'0 0.0
2018-Apr-13 08:29N 59°20' E 018°05'0 0.0
2018-Apr-13 07:58N 59°20' E 018°05'0 0.0
2018-Apr-13 07:29N 59°20' E 018°05'0 0.0
2018-Apr-13 06:58N 59°20' E 018°05'0 0.0
2018-Apr-13 06:30N 59°20' E 018°05'0 0.0
2018-Apr-13 06:00N 59°20' E 018°05'3 5.2
2018-Apr-13 05:31N 59°19' E 018°09'611.4
2018-Apr-13 05:00N 59°23' E 018°19'2 4.7
2018-Apr-13 04:30N 59°24' E 018°22'0 0.3
2018-Apr-13 04:00N 59°24' E 018°23'1 1.4
2018-Apr-13 03:29N 59°24' E 018°21'0 0.0
2018-Apr-13 03:00N 59°24' E 018°21'0 0.0
2018-Apr-13 02:28N 59°24' E 018°21'0 0.0
2018-Apr-13 02:00N 59°24' E 018°21'0 0.0
2018-Apr-13 01:30N 59°24' E 018°21'0 0.0
2018-Apr-13 00:56N 59°24' E 018°21'0 0.0
2018-Apr-13 00:29N 59°24' E 018°21'0 0.0
2018-Apr-12 23:59N 59°24' E 018°21'0 0.0
2018-Apr-12 23:27N 59°24' E 018°21'0 0.0
2018-Apr-12 23:00N 59°24' E 018°21'0 0.0
2018-Apr-12 22:28N 59°24' E 018°21'0 0.0
2018-Apr-12 21:57N 59°24' E 018°21'0 0.0
2018-Apr-12 21:26N 59°24' E 018°21'0 0.0
2018-Apr-12 20:55N 59°24' E 018°21'0 0.0
2018-Apr-12 20:25N 59°24' E 018°21'0 0.0
2018-Apr-12 20:00N 59°24' E 018°21'0 0.0
2018-Apr-12 19:26N 59°24' E 018°21'0 0.0
2018-Apr-12 18:58N 59°24' E 018°21'0 0.0
2018-Apr-12 18:28N 59°24' E 018°21'0 0.0
2018-Apr-12 17:59N 59°24' E 018°21'0 0.2
2018-Apr-12 17:30N 59°24' E 018°21'1 1.9
2018-Apr-12 16:59N 59°24' E 018°23'1 2.9
2018-Apr-12 16:29N 59°23' E 018°20'4 9.1
2018-Apr-12 16:00N 59°21' E 018°13'5 9.1
2018-Apr-12 15:30N 59°20' E 018°05'0 0.1
2018-Apr-12 14:58N 59°20' E 018°05'0 0.0
2018-Apr-12 14:30N 59°20' E 018°05'0 0.0
2018-Apr-12 13:58N 59°20' E 018°05'0 0.0
2018-Apr-12 13:28N 59°20' E 018°05'0 0.0
2018-Apr-12 12:58N 59°20' E 018°05'1 1.4
2018-Apr-12 12:30N 59°19' E 018°05'3 6.2
2018-Apr-12 12:00N 59°20' E 018°11'3 5.9
2018-Apr-12 11:30N 59°19' E 018°06'1 1.0
2018-Apr-12 10:54N 59°20' E 018°05'0 0.0
2018-Apr-12 10:27N 59°20' E 018°05'0 0.1
2018-Apr-12 09:57N 59°20' E 018°05'0 0.0
2018-Apr-12 09:28N 59°20' E 018°05'0 0.0
2018-Apr-12 08:58N 59°20' E 018°05'0 0.0
2018-Apr-12 08:28N 59°20' E 018°05'0 0.0
2018-Apr-12 08:00N 59°20' E 018°05'0 0.0
2018-Apr-12 07:27N 59°20' E 018°05'0 0.0
2018-Apr-12 06:58N 59°20' E 018°05'0 0.0
2018-Apr-12 06:29N 59°20' E 018°05'0 0.0
2018-Apr-12 05:58N 59°20' E 018°05'0 0.0
2018-Apr-12 05:30N 59°20' E 018°05'0 0.0
2018-Apr-12 04:58N 59°20' E 018°05'0 0.0
2018-Apr-12 04:29N 59°20' E 018°05'0 0.0
2018-Apr-12 04:00N 59°20' E 018°05'0 0.0
2018-Apr-12 03:28N 59°20' E 018°05'0 0.0
2018-Apr-12 02:54N 59°20' E 018°05'0 0.0
2018-Apr-12 02:28N 59°20' E 018°05'0 0.0
2018-Apr-12 01:59N 59°20' E 018°05'0 0.0
2018-Apr-12 01:29N 59°20' E 018°05'0 0.0
2018-Apr-12 00:56N 59°20' E 018°05'0 0.0
2018-Apr-12 00:28N 59°20' E 018°05'0 0.0
2018-Apr-11 23:59N 59°20' E 018°05'0 0.0
2018-Apr-11 23:30N 59°20' E 018°05'0 0.0
2018-Apr-11 23:00N 59°20' E 018°05'0 0.0
2018-Apr-11 22:29N 59°20' E 018°05'0 0.0
2018-Apr-11 22:00N 59°20' E 018°05'0 0.0
2018-Apr-11 21:28N 59°20' E 018°05'0 0.0
2018-Apr-11 20:58N 59°20' E 018°05'0 0.0
2018-Apr-11 20:30N 59°20' E 018°05'0 0.0
2018-Apr-11 20:00N 59°20' E 018°05'0 0.0
2018-Apr-11 19:28N 59°20' E 018°05'0 0.0
2018-Apr-11 18:59N 59°20' E 018°05'0 0.0
2018-Apr-11 18:29N 59°20' E 018°05'0 0.0
2018-Apr-11 18:00N 59°20' E 018°05'0 0.0
2018-Apr-11 17:30N 59°20' E 018°05'0 0.0
2018-Apr-11 17:00N 59°20' E 018°05'0 0.0
2018-Apr-11 16:28N 59°20' E 018°05'0 0.0
2018-Apr-11 15:55N 59°20' E 018°05'0 0.0
2018-Apr-11 15:30N 59°20' E 018°05'0 0.0
2018-Apr-11 15:00N 59°20' E 018°05'0 0.0
2018-Apr-11 14:28N 59°20' E 018°05'0 0.0
2018-Apr-11 13:58N 59°20' E 018°05'0 0.0
2018-Apr-11 13:26N 59°20' E 018°05'0 0.0
2018-Apr-11 13:00N 59°20' E 018°05'0 0.0
2018-Apr-11 12:24N 59°20' E 018°05'0 0.0
2018-Apr-11 11:58N 59°20' E 018°05'0 0.0
2018-Apr-11 11:25N 59°20' E 018°05'0 0.0
2018-Apr-11 11:01N 59°20' E 018°05'0 0.0
2018-Apr-11 10:31N 59°20' E 018°05'0 0.0
2018-Apr-11 10:01N 59°20' E 018°05'0 0.0
2018-Apr-11 09:30N 59°20' E 018°05'0 0.0
2018-Apr-11 09:01N 59°20' E 018°05'0 0.0
2018-Apr-11 08:31N 59°20' E 018°05'0 0.0
2018-Apr-11 08:00N 59°20' E 018°05'0 0.0
2018-Apr-11 07:31N 59°20' E 018°05'0 0.0
2018-Apr-11 07:01N 59°20' E 018°05'0 0.0
2018-Apr-11 06:31N 59°20' E 018°05'0 0.0
2018-Apr-11 06:01N 59°20' E 018°05'0 0.0
2018-Apr-11 05:31N 59°20' E 018°05'0 0.0
2018-Apr-11 05:00N 59°20' E 018°05'0 0.0
2018-Apr-11 04:31N 59°20' E 018°05'0 0.0
2018-Apr-11 04:01N 59°20' E 018°05'0 0.0
2018-Apr-11 03:31N 59°20' E 018°05'0 0.0
2018-Apr-11 03:01N 59°20' E 018°05'0 0.0
2018-Apr-11 02:31N 59°20' E 018°05'0 0.0
2018-Apr-11 02:00N 59°20' E 018°05'0 0.0
2018-Apr-11 01:31N 59°20' E 018°05'0 0.0
2018-Apr-11 01:01N 59°20' E 018°05'0 0.0
2018-Apr-11 00:31N 59°20' E 018°05'0 0.0
2018-Apr-11 00:01N 59°20' E 018°05'0 0.0
2018-Apr-10 23:31N 59°20' E 018°05'0 0.0
2018-Apr-10 23:01N 59°20' E 018°05'0 0.0
2018-Apr-10 22:31N 59°20' E 018°05'0 0.0
2018-Apr-10 22:01N 59°20' E 018°05'  
Track history (hours):
 
Tides and Currents Weather Stations Pressure Air Temp Water Temp Dewpoint Dewpoint Depression Visibility Wind Speed Wind Dir Waves Ship Positions

Vano

Last reported at 2018-Apr-20 21:53 UTC. Time now 2018-Apr-20 22:17 UTC.
Position N 59°20' E 018°04'.

Length 38 m; draft 2.5 m.

Type: Passenger vessel. MMSI: 265520400.

Date/timePositionNaut miles runAvg speedWind from/ knotsBaromVisibWave heightAir tempDewpointWater temp
2018-Apr-20 21:53N 59°20' E 018°04'0 0.0
2018-Apr-20 21:29N 59°20' E 018°04'0 0.0
2018-Apr-20 20:56N 59°20' E 018°04'0 0.0
2018-Apr-20 20:28N 59°20' E 018°04'0 0.0
2018-Apr-20 19:54N 59°20' E 018°04'0 0.0
2018-Apr-20 19:29N 59°20' E 018°04'3 6.7
2018-Apr-20 19:00N 59°20' E 018°11'714.2
2018-Apr-20 18:30N 59°24' E 018°21'510.1
2018-Apr-20 17:59N 59°25' E 018°32'3 6.3
2018-Apr-20 17:30N 59°27' E 018°36'612.1
2018-Apr-20 17:00N 59°30' E 018°47'1 1.9
2018-Apr-20 16:30N 59°29' E 018°46'5 8.8
2018-Apr-20 15:55N 59°27' E 018°36'3 4.9
2018-Apr-20 15:24N 59°25' E 018°33'4 8.4
2018-Apr-20 14:59N 59°27' E 018°27'4 7.7
2018-Apr-20 14:30N 59°24' E 018°21'5 9.3
2018-Apr-20 14:00N 59°21' E 018°15'510.6
2018-Apr-20 13:30N 59°20' E 018°04'0 0.0
2018-Apr-20 12:59N 59°20' E 018°04'0 0.0
2018-Apr-20 12:29N 59°20' E 018°04'0 0.0
2018-Apr-20 12:00N 59°20' E 018°04'0 0.0
2018-Apr-20 11:28N 59°20' E 018°04'0 0.0
2018-Apr-20 10:55N 59°20' E 018°04'0 0.0
2018-Apr-20 10:24N 59°20' E 018°04'0 0.0
2018-Apr-20 10:00N 59°20' E 018°04'0 0.0
2018-Apr-20 09:30N 59°20' E 018°04'0 0.0
2018-Apr-20 08:59N 59°20' E 018°04'0 0.0
2018-Apr-20 08:29N 59°20' E 018°04'0 0.0
2018-Apr-20 08:00N 59°20' E 018°04'0 0.0
2018-Apr-20 07:29N 59°20' E 018°04'0 0.0
2018-Apr-20 06:59N 59°20' E 018°04'0 0.0
2018-Apr-20 06:24N 59°20' E 018°04'0 0.1
2018-Apr-20 06:00N 59°20' E 018°04'4 8.4
2018-Apr-20 05:30N 59°20' E 018°13'4 8.1
2018-Apr-20 05:00N 59°23' E 018°19'2 4.0
2018-Apr-20 04:30N 59°24' E 018°23'0 0.1
2018-Apr-20 04:00N 59°24' E 018°23'1 1.5
2018-Apr-20 03:26N 59°24' E 018°21'0 0.0
2018-Apr-20 02:57N 59°24' E 018°21'0 0.0
2018-Apr-20 02:29N 59°24' E 018°21'0 0.0
2018-Apr-20 01:52N 59°24' E 018°21'0 0.0
2018-Apr-20 01:27N 59°24' E 018°21'0 0.0
2018-Apr-20 00:54N 59°24' E 018°21'0 0.0
2018-Apr-20 00:23N 59°24' E 018°21'0 0.0
2018-Apr-19 23:59N 59°24' E 018°21'0 0.0
2018-Apr-19 23:18N 59°24' E 018°21'0 0.0
2018-Apr-19 22:54N 59°24' E 018°21'0 0.0
2018-Apr-19 22:28N 59°24' E 018°21'0 0.0
2018-Apr-19 21:49N 59°24' E 018°21'0 0.0
2018-Apr-19 21:27N 59°24' E 018°21'0 0.0
2018-Apr-19 20:54N 59°24' E 018°21'0 0.0
2018-Apr-19 20:29N 59°24' E 018°21'0 0.0
2018-Apr-19 19:48N 59°24' E 018°21'0 0.0
2018-Apr-19 19:28N 59°24' E 018°21'0 0.0
2018-Apr-19 18:50N 59°24' E 018°21'0 0.0
2018-Apr-19 18:27N 59°24' E 018°21'0 0.0
2018-Apr-19 17:36N 59°24' E 018°21'0 0.4
2018-Apr-19 17:31N 59°24' E 018°21'0 1.0
2018-Apr-19 17:00N 59°24' E 018°22'2 4.3
2018-Apr-19 16:30N 59°23' E 018°19'5 9.5
2018-Apr-19 16:00N 59°20' E 018°11'4 7.0
2018-Apr-19 15:30N 59°20' E 018°05'0 0.1
2018-Apr-19 14:58N 59°20' E 018°05'0 0.0
2018-Apr-19 14:30N 59°20' E 018°05'0 0.0
2018-Apr-19 13:58N 59°20' E 018°05'0 0.0
2018-Apr-19 13:26N 59°20' E 018°05'0 0.0
2018-Apr-19 12:54N 59°20' E 018°05'0 0.0
2018-Apr-19 12:30N 59°20' E 018°05'0 0.0
2018-Apr-19 12:00N 59°20' E 018°05'0 0.0
2018-Apr-19 11:29N 59°20' E 018°05'0 0.0
2018-Apr-19 10:59N 59°20' E 018°05'0 0.0
2018-Apr-19 10:29N 59°20' E 018°05'0 0.0
2018-Apr-19 10:00N 59°20' E 018°05'0 0.0
2018-Apr-19 09:28N 59°20' E 018°05'0 0.0
2018-Apr-19 08:59N 59°20' E 018°05'0 0.0
2018-Apr-19 08:30N 59°20' E 018°05'1 1.6
2018-Apr-19 08:00N 59°19' E 018°06'5 8.9
2018-Apr-19 07:27N 59°21' E 018°14'5 8.6
2018-Apr-19 06:55N 59°24' E 018°21'3 8.3
2018-Apr-19 06:30N 59°26' E 018°28'611.1
2018-Apr-19 06:01N 59°22' E 018°36'610.0
2018-Apr-19 05:26N 59°24' E 018°47'4 5.1
2018-Apr-19 04:36N 59°25' E 018°55'1 8.1
2018-Apr-19 04:30N 59°26' E 018°56'1 1.2
2018-Apr-19 03:58N 59°27' E 018°55'0 0.0
2018-Apr-19 03:28N 59°27' E 018°55'0 0.0
2018-Apr-19 03:00N 59°27' E 018°55'0 0.0
2018-Apr-19 02:30N 59°27' E 018°55'0 0.0
2018-Apr-19 01:58N 59°27' E 018°55'0 0.0
2018-Apr-19 01:28N 59°27' E 018°55'0 0.0
2018-Apr-19 00:58N 59°27' E 018°55'0 0.0
2018-Apr-19 00:30N 59°27' E 018°55'0 0.0
2018-Apr-18 23:59N 59°27' E 018°55'0 0.0
2018-Apr-18 23:29N 59°27' E 018°55'0 0.0
2018-Apr-18 22:51N 59°27' E 018°55'0 0.0
2018-Apr-18 22:30N 59°27' E 018°55'0 0.0
2018-Apr-18 21:51N 59°27' E 018°55'0 0.0
2018-Apr-18 21:16N 59°27' E 018°55'0 0.0
2018-Apr-18 20:57N 59°27' E 018°55'0 0.0
2018-Apr-18 20:30N 59°27' E 018°55'0 0.0
2018-Apr-18 20:00N 59°27' E 018°55'0 0.0
2018-Apr-18 19:30N 59°27' E 018°55'0 0.0
2018-Apr-18 19:00N 59°27' E 018°55'0 0.0
2018-Apr-18 18:30N 59°27' E 018°55'0 0.0
2018-Apr-18 18:00N 59°27' E 018°55'0 0.0
2018-Apr-18 17:27N 59°27' E 018°55'1 1.6
2018-Apr-18 17:00N 59°26' E 018°55'4 6.2
2018-Apr-18 16:21N 59°23' E 018°50'3 6.8
2018-Apr-18 15:59N 59°23' E 018°46'5 6.7
2018-Apr-18 15:15N 59°22' E 018°36'0 0.1
2018-Apr-18 14:45N 59°22' E 018°36'0 0.0
2018-Apr-18 14:26N 59°22' E 018°36'0 0.2
2018-Apr-18 13:56N 59°22' E 018°36'4 7.8
2018-Apr-18 13:29N 59°23' E 018°43'3 3.9
2018-Apr-18 12:48N 59°23' E 018°48'4 5.1
2018-Apr-18 12:07N 59°25' E 018°54'1 6.5
2018-Apr-18 12:01N 59°25' E 018°55'1 2.8
2018-Apr-18 11:30N 59°27' E 018°53'0 0.2
2018-Apr-18 11:00N 59°27' E 018°53'1 2.9
2018-Apr-18 10:30N 59°26' E 018°55'4 6.6
2018-Apr-18 09:56N 59°22' E 018°53'3 5.7
2018-Apr-18 09:23N 59°24' E 018°47'3 5.5
2018-Apr-18 08:51N 59°23' E 018°42'3 5.4
2018-Apr-18 08:21N 59°22' E 018°36'0 0.0
2018-Apr-18 07:52N 59°22' E 018°36'0 0.0
2018-Apr-18 07:27N 59°22' E 018°36'0 0.0
2018-Apr-18 05:54N 59°22' E 018°36'4 9.2
2018-Apr-18 05:27N 59°26' E 018°39'2 3.7
2018-Apr-18 05:00N 59°26' E 018°42'5 9.1
2018-Apr-18 04:30N 59°29' E 018°50'1 2.3
2018-Apr-18 03:58N 59°30' E 018°51'0 0.0
2018-Apr-18 03:28N 59°30' E 018°51'0 0.0
2018-Apr-18 02:56N 59°30' E 018°51'0 0.0
2018-Apr-18 02:29N 59°30' E 018°51'0 0.0
2018-Apr-18 01:57N 59°30' E 018°51'0 0.0
2018-Apr-18 01:27N 59°30' E 018°51'0 0.0
2018-Apr-18 00:52N 59°30' E 018°51'0 0.0
2018-Apr-18 00:20N 59°30' E 018°51'0 0.0
2018-Apr-17 23:56N 59°30' E 018°51'0 0.0
2018-Apr-17 23:28N 59°30' E 018°51'0 0.0
2018-Apr-17 22:49N 59°30' E 018°51'0 0.0
2018-Apr-17 22:17N 59°30' E 018°51'0 0.0
2018-Apr-17 20:56N 59°30' E 018°51'0 0.0
2018-Apr-17 20:29N 59°30' E 018°51'0 0.0
2018-Apr-17 19:59N 59°30' E 018°51'0 0.0
2018-Apr-17 19:29N 59°30' E 018°51'0 0.0
2018-Apr-17 18:41N 59°30' E 018°51'0 0.0
2018-Apr-17 18:15N 59°30' E 018°51'0 0.0
2018-Apr-17 17:57N 59°30' E 018°51'0 0.0
2018-Apr-17 17:30N 59°30' E 018°51'0 0.0
2018-Apr-17 16:55N 59°30' E 018°51'4 7.9
2018-Apr-17 16:26N 59°28' E 018°44'3 5.6
2018-Apr-17 15:57N 59°26' E 018°41'3 6.3
2018-Apr-17 15:29N 59°23' E 018°38'4 7.6
2018-Apr-17 15:00N 59°25' E 018°31'5 9.9
2018-Apr-17 14:29N 59°25' E 018°22'2 5.2
2018-Apr-17 14:00N 59°23' E 018°20'4 8.0
2018-Apr-17 13:30N 59°21' E 018°14'5 9.0
2018-Apr-17 12:58N 59°20' E 018°05'0 0.0
2018-Apr-17 12:28N 59°20' E 018°05'0 0.0
2018-Apr-17 11:59N 59°20' E 018°05'0 0.0
2018-Apr-17 11:28N 59°20' E 018°05'0 0.0
2018-Apr-17 10:57N 59°20' E 018°05'0 0.0
2018-Apr-17 10:29N 59°20' E 018°05'0 0.0
2018-Apr-17 09:59N 59°20' E 018°05'0 0.0
2018-Apr-17 09:30N 59°20' E 018°05'0 0.0
2018-Apr-17 08:55N 59°20' E 018°05'0 0.0
2018-Apr-17 08:29N 59°20' E 018°05'0 0.0
2018-Apr-17 07:58N 59°20' E 018°05'0 0.0
2018-Apr-17 07:29N 59°20' E 018°05'0 0.0
2018-Apr-17 06:53N 59°20' E 018°05'0 0.0
2018-Apr-17 06:24N 59°20' E 018°05'0 0.0
2018-Apr-17 06:00N 59°20' E 018°05'0 0.0
2018-Apr-17 05:25N 59°20' E 018°05'0 0.0
2018-Apr-17 04:59N 59°20' E 018°05'0 0.0
2018-Apr-17 04:30N 59°20' E 018°05'0 0.0
2018-Apr-17 03:57N 59°20' E 018°05'0 0.0
2018-Apr-17 03:26N 59°20' E 018°05'0 0.0
2018-Apr-17 02:53N 59°20' E 018°05'0 0.0
2018-Apr-17 02:28N 59°20' E 018°05'0 0.0
2018-Apr-17 02:00N 59°20' E 018°05'0 0.0
2018-Apr-17 01:29N 59°20' E 018°05'0 0.0
2018-Apr-17 00:59N 59°20' E 018°05'0 0.0
2018-Apr-17 00:27N 59°20' E 018°05'0 0.0
2018-Apr-16 23:58N 59°20' E 018°05'0 0.0
2018-Apr-16 23:29N 59°20' E 018°05'0 0.0
2018-Apr-16 22:55N 59°20' E 018°05'0 0.0
2018-Apr-16 22:30N 59°20' E 018°05'0 0.0
2018-Apr-16 21:59N 59°20' E 018°05'0 0.0
2018-Apr-16 21:27N 59°20' E 018°05'0 0.0
2018-Apr-16 21:00N 59°20' E 018°05'0 0.0
2018-Apr-16 20:27N 59°20' E 018°05'0 0.0
2018-Apr-16 20:00N 59°20' E 018°05'0 0.0
2018-Apr-16 19:29N 59°20' E 018°05'0 0.0
2018-Apr-16 19:00N 59°20' E 018°05'0 0.0
2018-Apr-16 18:29N 59°20' E 018°05'0 0.0
2018-Apr-16 17:59N 59°20' E 018°05'0 0.0
2018-Apr-16 17:30N 59°20' E 018°05'0 0.0
2018-Apr-16 16:58N 59°20' E 018°05'0 0.0
2018-Apr-16 16:29N 59°20' E 018°05'0 0.0
2018-Apr-16 16:00N 59°20' E 018°05'0 0.0
2018-Apr-16 15:25N 59°20' E 018°05'0 0.0
2018-Apr-16 15:00N 59°20' E 018°05'0 0.0
2018-Apr-16 14:30N 59°20' E 018°05'0 0.0
2018-Apr-16 13:58N 59°20' E 018°05'0 0.0
2018-Apr-16 13:29N 59°20' E 018°05'0 0.0
2018-Apr-16 12:56N 59°20' E 018°05'0 0.0
2018-Apr-16 12:30N 59°20' E 018°05'0 0.0
2018-Apr-16 11:59N 59°20' E 018°05'0 0.0
2018-Apr-16 11:29N 59°20' E 018°05'0 0.0
2018-Apr-16 10:53N 59°20' E 018°05'0 0.0
2018-Apr-16 10:30N 59°20' E 018°05'0 0.0
2018-Apr-16 09:58N 59°20' E 018°05'0 0.0
2018-Apr-16 09:29N 59°20' E 018°05'0 0.0
2018-Apr-16 09:00N 59°20' E 018°05'0 0.0
2018-Apr-16 08:27N 59°20' E 018°05'0 0.7
2018-Apr-16 08:00N 59°19' E 018°05'510.7
2018-Apr-16 07:30N 59°21' E 018°14'4 8.9
2018-Apr-16 07:00N 59°24' E 018°21'4 7.1
2018-Apr-16 06:30N 59°26' E 018°28'611.2
2018-Apr-16 06:00N 59°22' E 018°36'4 7.6
2018-Apr-16 05:29N 59°23' E 018°44'3 6.4
2018-Apr-16 04:59N 59°23' E 018°50'3 7.0
2018-Apr-16 04:30N 59°25' E 018°55'1 2.6
2018-Apr-16 04:00N 59°27' E 018°55'0 0.2
2018-Apr-16 03:30N 59°27' E 018°55'0 0.0
2018-Apr-16 02:58N 59°27' E 018°55'0 0.0
2018-Apr-16 02:28N 59°27' E 018°55'0 0.0
2018-Apr-16 01:58N 59°27' E 018°55'0 0.0
2018-Apr-16 01:28N 59°27' E 018°55'0 0.0
2018-Apr-16 00:58N 59°27' E 018°55'0 0.0
2018-Apr-16 00:29N 59°27' E 018°55'0 0.0
2018-Apr-15 23:57N 59°27' E 018°55'0 0.0
2018-Apr-15 23:24N 59°27' E 018°55'0 0.0
2018-Apr-15 22:57N 59°27' E 018°55'0 0.0
2018-Apr-15 22:27N 59°27' E 018°55'0 0.0
2018-Apr-15 22:00N 59°27' E 018°55'0 0.0
2018-Apr-15 21:25N 59°27' E 018°55'0 0.0
2018-Apr-15 20:58N 59°27' E 018°55'0 0.0
2018-Apr-15 20:28N 59°27' E 018°55'0 0.0
2018-Apr-15 19:50N 59°27' E 018°55'0 0.0
2018-Apr-15 19:28N 59°27' E 018°55'5 5.7
2018-Apr-15 18:37N 59°23' E 018°49'0 2.5
2018-Apr-15 18:30N 59°23' E 018°48'4 8.1
2018-Apr-15 17:57N 59°23' E 018°39'611.7
2018-Apr-15 17:25N 59°25' E 018°28'4 9.1
2018-Apr-15 17:00N 59°24' E 018°21'5 9.2
2018-Apr-15 16:30N 59°21' E 018°14'510.5
2018-Apr-15 16:00N 59°20' E 018°04'0 0.0
2018-Apr-15 15:28N 59°20' E 018°04'0 0.0
2018-Apr-15 14:59N 59°20' E 018°04'0 0.0
2018-Apr-15 14:29N 59°20' E 018°04'1 2.6
2018-Apr-15 14:00N 59°19' E 018°07'714.3
2018-Apr-15 13:30N 59°23' E 018°19'5 8.9
2018-Apr-15 13:00N 59°26' E 018°26'13 8.3
2018-Apr-15 11:28N 59°23' E 018°50'3 6.7
2018-Apr-15 10:57N 59°25' E 018°55'1 3.2
2018-Apr-15 10:30N 59°27' E 018°55'5 6.6
2018-Apr-15 09:49N 59°23' E 018°51'2 5.5
2018-Apr-15 09:24N 59°24' E 018°47'2 4.0
2018-Apr-15 08:57N 59°23' E 018°43'4 6.1
2018-Apr-15 08:15N 59°23' E 018°35'312.3
2018-Apr-15 07:59N 59°25' E 018°30'5 9.5
2018-Apr-15 07:30N 59°25' E 018°21'510.9
2018-Apr-15 07:00N 59°21' E 018°14'5 9.2
2018-Apr-15 06:29N 59°20' E 018°05'0 0.0
2018-Apr-15 05:59N 59°20' E 018°05'0 0.0
2018-Apr-15 05:30N 59°20' E 018°05'0 0.0
2018-Apr-15 04:58N 59°20' E 018°05'0 0.0
2018-Apr-15 04:30N 59°20' E 018°05'0 0.0
2018-Apr-15 03:59N 59°20' E 018°05'0 0.0
2018-Apr-15 03:28N 59°20' E 018°05'0 0.0
2018-Apr-15 03:00N 59°20' E 018°05'0 0.0
2018-Apr-15 02:29N 59°20' E 018°05'0 0.0
2018-Apr-15 02:00N 59°20' E 018°05'0 0.0
2018-Apr-15 01:28N 59°20' E 018°05'0 0.0
2018-Apr-15 00:53N 59°20' E 018°05'0 0.0
2018-Apr-15 00:29N 59°20' E 018°05'0 0.0
2018-Apr-14 23:59N 59°20' E 018°05'0 0.0
2018-Apr-14 23:28N 59°20' E 018°05'0 0.0
2018-Apr-14 22:50N 59°20' E 018°05'0 0.0
2018-Apr-14 22:28N 59°20' E 018°05'0 0.0
2018-Apr-14 22:00N 59°20' E 018°05'0 0.0
2018-Apr-14 21:30N 59°20' E 018°05'0 0.0
2018-Apr-14 20:59N 59°20' E 018°05'0 0.0
2018-Apr-14 20:29N 59°20' E 018°05'0 0.0
2018-Apr-14 19:59N 59°20' E 018°05'2 5.2
2018-Apr-14 19:30N 59°19' E 018°09'713.5
2018-Apr-14 19:00N 59°23' E 018°20'5 9.1
2018-Apr-14 18:30N 59°25' E 018°28'610.9
2018-Apr-14 17:59N 59°28' E 018°38'613.3
2018-Apr-14 17:30N 59°30' E 018°50'510.6
2018-Apr-14 17:00N 59°26' E 018°42'2 5.0
2018-Apr-14 16:30N 59°25' E 018°38'2 4.1
2018-Apr-14 16:00N 59°24' E 018°34'5 9.0
2018-Apr-14 15:28N 59°26' E 018°25'3 6.5
2018-Apr-14 15:00N 59°24' E 018°21'4 7.8
2018-Apr-14 14:29N 59°21' E 018°15'511.2
2018-Apr-14 14:00N 59°20' E 018°04'0 0.0
2018-Apr-14 13:28N 59°20' E 018°04'0 0.0
2018-Apr-14 12:56N 59°20' E 018°04'0 0.5
2018-Apr-14 12:30N 59°20' E 018°05'510.6
2018-Apr-14 12:00N 59°21' E 018°15'5 8.9
2018-Apr-14 11:29N 59°24' E 018°21'5 9.4
2018-Apr-14 10:57N 59°25' E 018°31'814.9
2018-Apr-14 10:26N 59°25' E 018°46'511.8
2018-Apr-14 10:00N 59°27' E 018°56'5 7.2
2018-Apr-14 09:23N 59°22' E 018°52'5 6.3
2018-Apr-14 08:36N 59°23' E 018°43'1 2.6
2018-Apr-14 08:12N 59°23' E 018°42'2 8.0
2018-Apr-14 08:00N 59°23' E 018°39'610.0
2018-Apr-14 07:24N 59°25' E 018°28'3 8.5
2018-Apr-14 07:00N 59°24' E 018°21'5 9.3
2018-Apr-14 06:30N 59°21' E 018°15'510.7
2018-Apr-14 06:00N 59°20' E 018°04'0 0.1
2018-Apr-14 05:30N 59°20' E 018°04'0 0.0
2018-Apr-14 04:59N 59°20' E 018°04'0 0.0
2018-Apr-14 04:30N 59°20' E 018°04'0 0.0
2018-Apr-14 03:58N 59°20' E 018°04'0 0.0
2018-Apr-14 03:28N 59°20' E 018°04'0 0.0
2018-Apr-14 02:59N 59°20' E 018°04'0 0.0
2018-Apr-14 02:29N 59°20' E 018°04'0 0.0
2018-Apr-14 01:59N 59°20' E 018°04'0 0.0
2018-Apr-14 01:29N 59°20' E 018°04'0 0.0
2018-Apr-14 00:55N 59°20' E 018°04'0 0.0
2018-Apr-14 00:30N 59°20' E 018°04'0 0.0
2018-Apr-13 23:58N 59°20' E 018°04'0 0.0
2018-Apr-13 23:29N 59°20' E 018°04'0 0.0
2018-Apr-13 22:55N 59°20' E 018°04'0 0.0
2018-Apr-13 22:29N 59°20' E 018°04'0 0.0
2018-Apr-13 21:58N 59°20' E 018°04'0 0.0
2018-Apr-13 21:28N 59°20' E 018°04'0 0.0
2018-Apr-13 20:59N 59°20' E 018°04'0 0.0
2018-Apr-13 20:28N 59°20' E 018°04'0 0.0
2018-Apr-13 19:58N 59°20' E 018°04'0 0.0
2018-Apr-13 19:28N 59°20' E 018°04'0 0.0
2018-Apr-13 18:59N 59°20' E 018°04'0 0.0
2018-Apr-13 18:30N 59°20' E 018°04'0 0.0
2018-Apr-13 18:00N 59°20' E 018°04'0 0.0
2018-Apr-13 17:29N 59°20' E 018°04'0 0.0
2018-Apr-13 16:59N 59°20' E 018°04'3 7.0
2018-Apr-13 16:30N 59°20' E 018°11'714.3
2018-Apr-13 16:00N 59°25' E 018°21'611.0
2018-Apr-13 15:30N 59°25' E 018°32'3 5.9
2018-Apr-13 14:59N 59°27' E 018°27'4 6.9
2018-Apr-13 14:27N 59°24' E 018°21'510.6
2018-Apr-13 14:00N 59°21' E 018°15'5 9.8
2018-Apr-13 13:28N 59°20' E 018°05'0 0.0
2018-Apr-13 12:59N 59°20' E 018°05'0 0.0
2018-Apr-13 12:27N 59°20' E 018°05'0 0.0
2018-Apr-13 12:00N 59°20' E 018°05'0 0.0
2018-Apr-13 11:28N 59°20' E 018°05'0 0.0
2018-Apr-13 10:59N 59°20' E 018°05'0 0.0
2018-Apr-13 10:29N 59°20' E 018°05'0 0.0
2018-Apr-13 09:58N 59°20' E 018°05'0 0.0
2018-Apr-13 09:26N 59°20' E 018°05'0 0.0
2018-Apr-13 08:59N 59°20' E 018°05'0 0.0
2018-Apr-13 08:29N 59°20' E 018°05'0 0.0
2018-Apr-13 07:58N 59°20' E 018°05'0 0.0
2018-Apr-13 07:29N 59°20' E 018°05'0 0.0
2018-Apr-13 06:58N 59°20' E 018°05'0 0.0
2018-Apr-13 06:30N 59°20' E 018°05'0 0.0
2018-Apr-13 06:00N 59°20' E 018°05'3 5.2
2018-Apr-13 05:31N 59°19' E 018°09'611.4
2018-Apr-13 05:00N 59°23' E 018°19'2 4.7
2018-Apr-13 04:30N 59°24' E 018°22'0 0.3
2018-Apr-13 04:00N 59°24' E 018°23'1 1.4
2018-Apr-13 03:29N 59°24' E 018°21'0 0.0
2018-Apr-13 03:00N 59°24' E 018°21'0 0.0
2018-Apr-13 02:28N 59°24' E 018°21'0 0.0
2018-Apr-13 02:00N 59°24' E 018°21'0 0.0
2018-Apr-13 01:30N 59°24' E 018°21'0 0.0
2018-Apr-13 00:56N 59°24' E 018°21'0 0.0
2018-Apr-13 00:29N 59°24' E 018°21'0 0.0
2018-Apr-12 23:59N 59°24' E 018°21'0 0.0
2018-Apr-12 23:27N 59°24' E 018°21'0 0.0
2018-Apr-12 23:00N 59°24' E 018°21'0 0.0
2018-Apr-12 22:28N 59°24' E 018°21'0 0.0
2018-Apr-12 21:57N 59°24' E 018°21'0 0.0
2018-Apr-12 21:26N 59°24' E 018°21'0 0.0
2018-Apr-12 20:55N 59°24' E 018°21'0 0.0
2018-Apr-12 20:25N 59°24' E 018°21'0 0.0
2018-Apr-12 20:00N 59°24' E 018°21'0 0.0
2018-Apr-12 19:26N 59°24' E 018°21'0 0.0
2018-Apr-12 18:58N 59°24' E 018°21'0 0.0
2018-Apr-12 18:28N 59°24' E 018°21'0 0.0
2018-Apr-12 17:59N 59°24' E 018°21'0 0.2
2018-Apr-12 17:30N 59°24' E 018°21'1 1.9
2018-Apr-12 16:59N 59°24' E 018°23'1 2.9
2018-Apr-12 16:29N 59°23' E 018°20'4 9.1
2018-Apr-12 16:00N 59°21' E 018°13'5 9.1
2018-Apr-12 15:30N 59°20' E 018°05'0 0.1
2018-Apr-12 14:58N 59°20' E 018°05'0 0.0
2018-Apr-12 14:30N 59°20' E 018°05'0 0.0
2018-Apr-12 13:58N 59°20' E 018°05'0 0.0
2018-Apr-12 13:28N 59°20' E 018°05'0 0.0
2018-Apr-12 12:58N 59°20' E 018°05'1 1.4
2018-Apr-12 12:30N 59°19' E 018°05'3 6.2
2018-Apr-12 12:00N 59°20' E 018°11'3 5.9
2018-Apr-12 11:30N 59°19' E 018°06'1 1.0
2018-Apr-12 10:54N 59°20' E 018°05'0 0.0
2018-Apr-12 10:27N 59°20' E 018°05'0 0.1
2018-Apr-12 09:57N 59°20' E 018°05'0 0.0
2018-Apr-12 09:28N 59°20' E 018°05'0 0.0
2018-Apr-12 08:58N 59°20' E 018°05'0 0.0
2018-Apr-12 08:28N 59°20' E 018°05'0 0.0
2018-Apr-12 08:00N 59°20' E 018°05'0 0.0
2018-Apr-12 07:27N 59°20' E 018°05'0 0.0
2018-Apr-12 06:58N 59°20' E 018°05'0 0.0
2018-Apr-12 06:29N 59°20' E 018°05'0 0.0
2018-Apr-12 05:58N 59°20' E 018°05'0 0.0
2018-Apr-12 05:30N 59°20' E 018°05'0 0.0
2018-Apr-12 04:58N 59°20' E 018°05'0 0.0
2018-Apr-12 04:29N 59°20' E 018°05'0 0.0
2018-Apr-12 04:00N 59°20' E 018°05'0 0.0
2018-Apr-12 03:28N 59°20' E 018°05'0 0.0
2018-Apr-12 02:54N 59°20' E 018°05'0 0.0
2018-Apr-12 02:28N 59°20' E 018°05'0 0.0
2018-Apr-12 01:59N 59°20' E 018°05'0 0.0
2018-Apr-12 01:29N 59°20' E 018°05'0 0.0
2018-Apr-12 00:56N 59°20' E 018°05'0 0.0
2018-Apr-12 00:28N 59°20' E 018°05'0 0.0
2018-Apr-11 23:59N 59°20' E 018°05'0 0.0
2018-Apr-11 23:30N 59°20' E 018°05'0 0.0
2018-Apr-11 23:00N 59°20' E 018°05'0 0.0
2018-Apr-11 22:29N 59°20' E 018°05'0 0.0
2018-Apr-11 22:00N 59°20' E 018°05'0 0.0
2018-Apr-11 21:28N 59°20' E 018°05'0 0.0
2018-Apr-11 20:58N 59°20' E 018°05'0 0.0
2018-Apr-11 20:30N 59°20' E 018°05'0 0.0
2018-Apr-11 20:00N 59°20' E 018°05'0 0.0
2018-Apr-11 19:28N 59°20' E 018°05'0 0.0
2018-Apr-11 18:59N 59°20' E 018°05'0 0.0
2018-Apr-11 18:29N 59°20' E 018°05'0 0.0
2018-Apr-11 18:00N 59°20' E 018°05'0 0.0
2018-Apr-11 17:30N 59°20' E 018°05'0 0.0
2018-Apr-11 17:00N 59°20' E 018°05'0 0.0
2018-Apr-11 16:28N 59°20' E 018°05'0 0.0
2018-Apr-11 15:55N 59°20' E 018°05'0 0.0
2018-Apr-11 15:30N 59°20' E 018°05'0 0.0
2018-Apr-11 15:00N 59°20' E 018°05'0 0.0
2018-Apr-11 14:28N 59°20' E 018°05'0 0.0
2018-Apr-11 13:58N 59°20' E 018°05'0 0.0
2018-Apr-11 13:26N 59°20' E 018°05'0 0.0
2018-Apr-11 13:00N 59°20' E 018°05'0 0.0
2018-Apr-11 12:24N 59°20' E 018°05'0 0.0
2018-Apr-11 11:58N 59°20' E 018°05'0 0.0
2018-Apr-11 11:25N 59°20' E 018°05'0 0.0
2018-Apr-11 11:01N 59°20' E 018°05'0 0.0
2018-Apr-11 10:31N 59°20' E 018°05'0 0.0
2018-Apr-11 10:01N 59°20' E 018°05'0 0.0
2018-Apr-11 09:30N 59°20' E 018°05'0 0.0
2018-Apr-11 09:01N 59°20' E 018°05'0 0.0
2018-Apr-11 08:31N 59°20' E 018°05'0 0.0
2018-Apr-11 08:00N 59°20' E 018°05'0 0.0
2018-Apr-11 07:31N 59°20' E 018°05'0 0.0
2018-Apr-11 07:01N 59°20' E 018°05'0 0.0
2018-Apr-11 06:31N 59°20' E 018°05'0 0.0
2018-Apr-11 06:01N 59°20' E 018°05'0 0.0
2018-Apr-11 05:31N 59°20' E 018°05'0 0.0
2018-Apr-11 05:00N 59°20' E 018°05'0 0.0
2018-Apr-11 04:31N 59°20' E 018°05'0 0.0
2018-Apr-11 04:01N 59°20' E 018°05'0 0.0
2018-Apr-11 03:31N 59°20' E 018°05'0 0.0
2018-Apr-11 03:01N 59°20' E 018°05'0 0.0
2018-Apr-11 02:31N 59°20' E 018°05'0 0.0
2018-Apr-11 02:00N 59°20' E 018°05'0 0.0
2018-Apr-11 01:31N 59°20' E 018°05'0 0.0
2018-Apr-11 01:01N 59°20' E 018°05'0 0.0
2018-Apr-11 00:31N 59°20' E 018°05'0 0.0
2018-Apr-11 00:01N 59°20' E 018°05'0 0.0
2018-Apr-10 23:31N 59°20' E 018°05'0 0.0
2018-Apr-10 23:01N 59°20' E 018°05'0 0.0
2018-Apr-10 22:31N 59°20' E 018°05'0 0.0
2018-Apr-10 22:01N 59°20' E 018°05'  

Dump ship's entire track history